Time;durP1;ratioP1;P1;durP2;ratioP2;P2;SDS_P1;SDS_P2;PMS_P1;PMS_P2;Temp;Humidity;BMP_temperature;BMP_pressure;BME280_temperature;BME280_humidity;BME280_pressure;Samples;Min_cycle;Max_cycle;Signal;HPM_P1;HPM_P2
2022/11/27 00:02:02;;;;;;;15.65;1.80;;;9.90;99.90;;;;;;4978223;28;20031;-66
2022/11/27 00:04:28;;;;;;;19.20;2.42;;;9.90;99.90;;;;;;4980929;28;20027;-66
2022/11/27 00:06:54;;;;;;;16.60;2.45;;;9.90;99.90;;;;;;4984900;28;20095;-67
2022/11/27 00:09:20;;;;;;;21.77;2.05;;;10.00;99.90;;;;;;4977478;28;20482;-65
2022/11/27 00:11:46;;;;;;;19.27;3.25;;;10.00;99.90;;;;;;4977034;28;20027;-68
2022/11/27 00:14:16;;;;;;;19.60;2.97;;;10.00;99.90;;;;;;4975387;28;20034;-67
2022/11/27 00:16:42;;;;;;;24.33;3.58;;;10.10;99.90;;;;;;4978225;28;20026;-65
2022/11/27 00:19:09;;;;;;;15.98;2.50;;;10.20;99.90;;;;;;4975612;28;20022;-67
2022/11/27 00:21:37;;;;;;;13.25;2.70;;;10.20;99.90;;;;;;4971239;28;20030;-67
2022/11/27 00:24:06;;;;;;;14.60;4.00;;;10.20;99.90;;;;;;4971175;28;20046;-66
2022/11/27 00:26:32;;;;;;;13.35;2.35;;;10.20;99.90;;;;;;4975130;28;20118;-65
2022/11/27 00:28:59;;;;;;;22.98;3.17;;;10.20;99.90;;;;;;4971873;28;20044;-65
2022/11/27 00:31:28;;;;;;;25.52;4.18;;;10.20;99.90;;;;;;4971060;28;20122;-65
2022/11/27 00:33:55;;;;;;;23.25;3.65;;;10.20;99.90;;;;;;4971745;28;20422;-68
2022/11/27 00:36:21;;;;;;;22.67;3.35;;;10.20;99.90;;;;;;4974634;28;20027;-65
2022/11/27 00:38:47;;;;;;;19.50;2.80;;;10.20;99.90;;;;;;4969311;28;20493;-65
2022/11/27 00:41:19;;;;;;;20.23;3.00;;;10.30;99.90;;;;;;4967328;28;20037;-64
2022/11/27 00:43:45;;;;;;;18.13;2.63;;;10.30;99.90;;;;;;4978466;28;20050;-64
2022/11/27 00:46:14;;;;;;;25.92;3.47;;;10.30;99.90;;;;;;4976316;28;20463;-65
2022/11/27 00:48:40;;;;;;;19.60;2.90;;;10.30;99.90;;;;;;4976403;28;20495;-65
2022/11/27 00:51:09;;;;;;;17.60;3.15;;;10.30;99.90;;;;;;4978534;28;20105;-65
2022/11/27 00:53:35;;;;;;;21.85;3.50;;;10.30;99.90;;;;;;4977099;28;20069;-65
2022/11/27 00:56:01;;;;;;;28.02;4.25;;;10.30;99.90;;;;;;4978635;28;20058;-66
2022/11/27 00:58:29;;;;;;;21.45;3.45;;;10.30;99.90;;;;;;4976176;28;20505;-65
2022/11/27 01:01:06;;;;;;;20.17;3.28;;;10.40;99.90;;;;;;4974243;28;20077;-66
2022/11/27 01:03:32;;;;;;;18.38;3.53;;;10.30;99.90;;;;;;4963643;28;20027;-67
2022/11/27 01:06:06;;;;;;;18.05;2.40;;;10.40;99.90;;;;;;4969863;28;20475;-65
2022/11/27 01:08:32;;;;;;;20.33;5.35;;;10.40;99.90;;;;;;4972288;28;20515;-65
2022/11/27 01:10:59;;;;;;;22.08;2.88;;;10.30;99.90;;;;;;4971604;28;20031;-66
2022/11/27 01:13:28;;;;;;;16.55;2.28;;;10.40;99.90;;;;;;4975687;28;20086;-66
2022/11/27 01:16:02;;;;;;;18.88;2.80;;;10.40;99.90;;;;;;4970102;28;20106;-66
2022/11/27 01:18:28;;;;;;;25.33;3.08;;;10.40;99.90;;;;;;4973262;28;20034;-66
2022/11/27 01:20:54;;;;;;;16.70;3.10;;;10.40;99.90;;;;;;4972094;28;20159;-65
2022/11/27 01:23:21;;;;;;;28.10;5.38;;;10.40;99.90;;;;;;4975573;28;20034;-65
2022/11/27 01:25:47;;;;;;;17.85;3.47;;;10.40;99.90;;;;;;4972512;28;20022;-66
2022/11/27 01:28:14;;;;;;;24.33;3.28;;;10.40;99.90;;;;;;4981540;28;20046;-65
2022/11/27 01:30:40;;;;;;;17.40;3.47;;;10.40;99.90;;;;;;4978163;28;20463;-66
2022/11/27 01:33:06;;;;;;;24.98;3.28;;;10.50;99.90;;;;;;4975659;28;20031;-67
2022/11/27 01:35:32;;;;;;;21.75;3.22;;;10.50;99.90;;;;;;4986608;28;20032;-66
2022/11/27 01:37:58;;;;;;;16.73;3.72;;;10.60;99.90;;;;;;4979924;28;20026;-65
2022/11/27 01:40:25;;;;;;;19.00;2.80;;;10.60;99.90;;;;;;4977882;28;20042;-65
2022/11/27 01:42:50;;;;;;;26.50;3.47;;;10.60;99.90;;;;;;4980208;28;20073;-68
2022/11/27 01:45:19;;;;;;;13.18;2.10;;;10.60;99.90;;;;;;4975884;28;20125;-65
2022/11/27 01:47:55;;;;;;;19.20;3.17;;;10.60;99.90;;;;;;4975588;28;20050;-65
2022/11/27 01:50:41;;;;;;;24.00;3.15;;;10.60;99.90;;;;;;4977701;28;20027;-66
2022/11/27 01:53:18;;;;;;;16.25;3.65;;;10.70;99.90;;;;;;4965620;28;20043;-65
2022/11/27 01:55:53;;;;;;;22.50;3.85;;;10.60;99.90;;;;;;4973270;28;20028;-64
2022/11/27 01:58:24;;;;;;;17.20;4.30;;;10.70;99.90;;;;;;4971413;28;20035;-64
2022/11/27 02:00:50;;;;;;;15.30;2.92;;;10.70;99.90;;;;;;4972643;28;20019;-64
2022/11/27 02:03:16;;;;;;;20.60;2.67;;;10.70;99.90;;;;;;4974396;28;20050;-66
2022/11/27 02:05:42;;;;;;;15.55;2.70;;;10.70;99.90;;;;;;4973970;28;20037;-65
2022/11/27 02:08:10;;;;;;;13.48;2.88;;;10.70;99.90;;;;;;4977516;28;20043;-63
2022/11/27 02:10:51;;;;;;;23.35;2.45;;;10.70;99.90;;;;;;4967064;28;20031;-64
2022/11/27 02:13:35;;;;;;;18.73;4.10;;;10.80;99.90;;;;;;4973880;28;20034;-65
2022/11/27 02:16:21;;;;;;;18.95;3.03;;;10.80;99.90;;;;;;4973188;28;20470;-65
2022/11/27 02:19:13;;;;;;;17.23;3.15;;;10.80;99.90;;;;;;4967134;28;20022;-64
2022/11/27 02:22:01;;;;;;;20.70;2.47;;;10.90;99.90;;;;;;4972350;28;20026;-63
2022/11/27 02:25:00;;;;;;;13.52;3.13;;;10.90;99.90;;;;;;4978850;28;20080;-63
2022/11/27 02:28:05;;;;;;;17.17;3.03;;;10.90;99.90;;;;;;4964416;28;20101;-64
2022/11/27 02:30:37;;;;;;;21.85;2.58;;;10.90;99.90;;;;;;4973449;28;20081;-64
2022/11/27 02:33:07;;;;;;;21.15;2.90;;;10.90;99.90;;;;;;4984512;28;20125;-64
2022/11/27 02:36:00;;;;;;;17.35;2.90;;;10.90;99.90;;;;;;4962593;28;20026;-64
2022/11/27 02:38:36;;;;;;;24.70;2.83;;;11.00;99.90;;;;;;4967146;28;20520;-64
2022/11/27 02:41:11;;;;;;;26.05;3.00;;;10.90;99.90;;;;;;4983275;28;20029;-64
2022/11/27 02:43:41;;;;;;;19.73;2.75;;;11.00;99.90;;;;;;4974609;28;20053;-64
2022/11/27 02:46:09;;;;;;;17.47;3.13;;;11.00;99.90;;;;;;4979699;28;20030;-65
2022/11/27 02:48:57;;;;;;;18.25;2.53;;;11.00;99.90;;;;;;4974198;28;20034;-64
2022/11/27 02:51:34;;;;;;;16.45;2.75;;;11.00;99.90;;;;;;4978430;28;20372;-64
2022/11/27 02:54:04;;;;;;;24.10;3.25;;;11.00;99.90;;;;;;4975023;28;20019;-64
2022/11/27 02:56:31;;;;;;;18.40;2.78;;;11.00;99.90;;;;;;4972056;28;20130;-64
2022/11/27 02:59:04;;;;;;;19.65;2.67;;;11.00;99.90;;;;;;4982555;28;20473;-64
2022/11/27 03:01:35;;;;;;;13.95;2.15;;;11.00;99.90;;;;;;4970611;28;20376;-66
2022/11/27 03:04:07;;;;;;;20.00;2.63;;;11.00;99.90;;;;;;4973305;28;20034;-65
2022/11/27 03:06:39;;;;;;;18.77;2.95;;;11.00;99.90;;;;;;4976170;28;20037;-65
2022/11/27 03:09:18;;;;;;;14.90;2.17;;;11.10;99.90;;;;;;4972112;28;20579;-64
2022/11/27 03:11:44;;;;;;;22.15;3.00;;;11.10;99.90;;;;;;4963244;28;20424;-65
2022/11/27 03:14:12;;;;;;;11.80;3.38;;;11.10;99.90;;;;;;4975071;28;20058;-65
2022/11/27 03:16:47;;;;;;;8.10;1.85;;;11.10;99.90;;;;;;4975279;28;20382;-65
2022/11/27 03:19:13;;;;;;;15.05;2.95;;;11.10;99.90;;;;;;4979155;28;20026;-64
2022/11/27 03:21:42;;;;;;;15.25;2.20;;;11.10;99.90;;;;;;4974304;28;20027;-65
2022/11/27 03:24:09;;;;;;;18.17;2.25;;;11.10;99.90;;;;;;4971246;28;20023;-64
2022/11/27 03:26:36;;;;;;;15.40;1.90;;;11.10;99.90;;;;;;4967325;28;20022;-64
2022/11/27 03:29:06;;;;;;;10.20;3.13;;;11.10;99.90;;;;;;4985439;28;20076;-65
2022/11/27 03:31:32;;;;;;;16.85;2.70;;;11.10;99.90;;;;;;4978828;28;20034;-64
2022/11/27 03:33:58;;;;;;;13.93;2.10;;;11.10;99.90;;;;;;4982513;28;20023;-63
2022/11/27 03:36:24;;;;;;;7.38;1.67;;;11.20;99.90;;;;;;4970266;28;20031;-64
2022/11/27 03:38:52;;;;;;;18.05;2.88;;;11.20;99.90;;;;;;4976542;28;20376;-64
2022/11/27 03:41:36;;;;;;;15.27;2.42;;;11.20;99.90;;;;;;4974384;28;20085;-64
2022/11/27 03:44:09;;;;;;;11.00;1.70;;;11.20;99.90;;;;;;4973237;28;20105;-63
2022/11/27 03:46:53;;;;;;;12.75;2.25;;;11.20;99.90;;;;;;4973334;28;20034;-62
2022/11/27 03:49:44;;;;;;;10.77;2.42;;;11.20;99.90;;;;;;4981926;28;20037;-62
2022/11/27 03:52:36;;;;;;;13.68;2.22;;;11.20;99.90;;;;;;4974851;28;20030;-64
2022/11/27 03:55:18;;;;;;;12.63;2.13;;;11.20;99.90;;;;;;4928989;29;20103;-62
2022/11/27 03:58:28;;;;;;;19.60;2.58;;;11.30;99.90;;;;;;4930311;29;20039;-61
2022/11/27 04:00:55;;;;;;;12.45;2.47;;;11.30;99.90;;;;;;4916076;29;20126;-62
2022/11/27 04:03:26;;;;;;;11.95;2.03;;;11.30;99.90;;;;;;4928218;29;20267;-62
2022/11/27 04:05:52;;;;;;;13.05;2.22;;;11.30;99.90;;;;;;4929662;29;20598;-63
2022/11/27 04:08:18;;;;;;;12.65;2.50;;;11.30;99.90;;;;;;4928946;29;20190;-64
2022/11/27 04:10:44;;;;;;;11.52;2.33;;;11.30;99.90;;;;;;4930399;29;20078;-63
2022/11/27 04:13:10;;;;;;;11.65;2.45;;;11.30;99.90;;;;;;4928127;29;20044;-64
2022/11/27 04:15:36;;;;;;;16.58;2.35;;;11.30;99.90;;;;;;4914953;29;20036;-63
2022/11/27 04:18:02;;;;;;;16.70;2.53;;;11.40;99.90;;;;;;4929795;29;20042;-63
2022/11/27 04:20:28;;;;;;;12.18;2.70;;;11.40;99.90;;;;;;4929056;29;20032;-63
2022/11/27 04:22:54;;;;;;;12.50;3.20;;;11.40;99.90;;;;;;4896180;29;20040;-64
2022/11/27 04:25:21;;;;;;;16.55;2.47;;;11.40;99.90;;;;;;4928724;29;20040;-64
2022/11/27 04:27:48;;;;;;;18.92;2.92;;;11.40;99.90;;;;;;4930174;29;20046;-64
2022/11/27 04:30:14;;;;;;;19.05;3.08;;;11.40;99.90;;;;;;4909071;29;20508;-64
2022/11/27 04:32:40;;;;;;;18.88;3.10;;;11.40;99.90;;;;;;4961716;28;20039;-64
2022/11/27 04:35:06;;;;;;;12.10;2.35;;;11.40;99.90;;;;;;4970349;28;20097;-65
2022/11/27 04:37:32;;;;;;;16.23;3.78;;;11.40;99.90;;;;;;4981668;28;20041;-65
2022/11/27 04:39:57;;;;;;;24.58;3.10;;;11.50;99.90;;;;;;4973944;28;20139;-65
2022/11/27 04:42:23;;;;;;;19.75;2.75;;;11.50;99.90;;;;;;4976252;28;20047;-64
2022/11/27 04:44:49;;;;;;;22.00;2.88;;;11.50;99.90;;;;;;4975962;28;20042;-64
2022/11/27 04:47:15;;;;;;;20.25;3.17;;;11.60;99.90;;;;;;4973474;28;20066;-64
2022/11/27 04:49:41;;;;;;;15.82;2.50;;;11.60;99.90;;;;;;4973102;28;20113;-66
2022/11/27 04:52:07;;;;;;;22.00;4.00;;;11.60;99.90;;;;;;4976765;28;20109;-65
2022/11/27 04:54:33;;;;;;;16.70;2.88;;;11.60;99.90;;;;;;4969031;28;20027;-65
2022/11/27 04:56:59;;;;;;;17.45;2.90;;;11.60;99.90;;;;;;4983440;28;20058;-65
2022/11/27 04:59:24;;;;;;;20.70;3.22;;;11.60;99.90;;;;;;4978140;28;20030;-65
2022/11/27 05:01:50;;;;;;;14.73;1.90;;;11.70;99.90;;;;;;4981913;28;20027;-65
2022/11/27 05:04:16;;;;;;;11.90;2.00;;;11.70;99.90;;;;;;4975244;28;20070;-67
2022/11/27 05:06:42;;;;;;;18.20;1.80;;;11.70;99.90;;;;;;4973031;28;20031;-66
2022/11/27 05:09:08;;;;;;;14.93;1.88;;;11.70;99.90;;;;;;4972812;28;20121;-66
2022/11/27 05:11:33;;;;;;;14.45;2.25;;;11.70;99.90;;;;;;4978009;28;20018;-65
2022/11/27 05:14:15;;;;;;;18.55;2.75;;;11.80;99.90;;;;;;4979220;28;20018;-65
2022/11/27 05:16:51;;;;;;;19.30;2.03;;;11.70;99.90;;;;;;4978415;28;20062;-65
2022/11/27 05:19:20;;;;;;;15.43;2.15;;;11.80;99.90;;;;;;4972849;28;20110;-64
2022/11/27 05:21:46;;;;;;;9.88;2.08;;;11.80;99.90;;;;;;4976702;28;20031;-65
2022/11/27 05:24:13;;;;;;;14.60;3.28;;;11.80;99.90;;;;;;4980539;28;20023;-65
2022/11/27 05:26:39;;;;;;;15.10;2.20;;;11.80;99.90;;;;;;4978906;28;20031;-67
2022/11/27 05:29:07;;;;;;;11.40;1.90;;;11.80;99.90;;;;;;4977271;28;20031;-65
2022/11/27 05:31:34;;;;;;;9.80;2.17;;;11.80;99.90;;;;;;4976541;28;20454;-64
2022/11/27 05:34:00;;;;;;;15.13;2.00;;;11.80;99.90;;;;;;4973083;28;20030;-66
2022/11/27 05:36:26;;;;;;;13.48;1.40;;;11.80;99.90;;;;;;4977349;28;20031;-66
2022/11/27 05:38:52;;;;;;;9.65;1.20;;;11.90;99.90;;;;;;4978669;28;20382;-66
2022/11/27 05:41:18;;;;;;;9.32;1.48;;;11.90;99.90;;;;;;4985026;28;20027;-65
2022/11/27 05:43:44;;;;;;;11.35;2.08;;;11.90;99.90;;;;;;4974717;28;20465;-64
2022/11/27 05:46:13;;;;;;;4.75;1.70;;;11.90;99.90;;;;;;4976874;28;20070;-64
2022/11/27 05:48:39;;;;;;;12.32;2.70;;;11.90;99.90;;;;;;4975188;28;20371;-64
2022/11/27 05:51:05;;;;;;;10.52;2.00;;;12.00;99.90;;;;;;4980791;28;20019;-64
2022/11/27 05:53:31;;;;;;;13.10;2.42;;;11.90;99.90;;;;;;4983189;28;20049;-65
2022/11/27 05:56:02;;;;;;;11.63;1.42;;;12.00;99.90;;;;;;4982141;28;20445;-65
2022/11/27 05:58:28;;;;;;;12.65;1.70;;;12.00;99.90;;;;;;4973089;28;20027;-65
2022/11/27 06:00:54;;;;;;;12.85;2.33;;;12.00;99.90;;;;;;4972747;28;20031;-65
2022/11/27 06:03:19;;;;;;;9.95;1.75;;;12.00;99.90;;;;;;4990149;28;20050;-68
2022/11/27 06:05:45;;;;;;;12.43;1.02;;;12.00;99.90;;;;;;4982491;28;20042;-66
2022/11/27 06:08:11;;;;;;;9.65;2.20;;;12.00;99.90;;;;;;4973007;28;20034;-66
2022/11/27 06:10:38;;;;;;;12.65;1.92;;;12.00;99.90;;;;;;4984240;28;20113;-65
2022/11/27 06:13:04;;;;;;;11.60;3.08;;;12.00;99.90;;;;;;4981957;28;20065;-65
2022/11/27 06:15:30;;;;;;;9.38;2.22;;;12.00;99.90;;;;;;4981580;28;20026;-65
2022/11/27 06:17:56;;;;;;;13.48;2.00;;;12.00;99.90;;;;;;4972474;28;20030;-64
2022/11/27 06:20:22;;;;;;;21.88;2.15;;;12.10;99.90;;;;;;4981422;28;20117;-65
2022/11/27 06:22:49;;;;;;;15.38;2.13;;;12.10;99.90;;;;;;4987929;28;20364;-65
2022/11/27 06:25:15;;;;;;;8.35;1.45;;;12.10;99.90;;;;;;4976176;28;20023;-64
2022/11/27 06:27:40;;;;;;;11.00;1.70;;;12.10;99.90;;;;;;4976482;28;20042;-64
2022/11/27 06:30:07;;;;;;;9.52;1.40;;;12.10;99.90;;;;;;4973844;28;20082;-65
2022/11/27 06:32:33;;;;;;;9.25;0.95;;;12.10;99.90;;;;;;4982411;28;20089;-65
2022/11/27 06:34:58;;;;;;;7.40;0.88;;;12.10;99.90;;;;;;4984668;28;20026;-65
2022/11/27 06:37:24;;;;;;;5.45;0.90;;;12.10;99.90;;;;;;4972676;28;20039;-66
2022/11/27 06:39:50;;;;;;;9.32;1.00;;;12.10;99.90;;;;;;4983936;28;20030;-65
2022/11/27 06:42:16;;;;;;;6.53;1.15;;;12.10;99.90;;;;;;4979145;28;20082;-67
2022/11/27 06:44:42;;;;;;;3.13;0.52;;;12.10;99.90;;;;;;4976107;28;20026;-66
2022/11/27 06:47:08;;;;;;;4.60;0.50;;;12.10;99.90;;;;;;4972097;28;20039;-64
2022/11/27 06:49:34;;;;;;;5.35;0.70;;;12.20;99.90;;;;;;4982418;28;20454;-65
2022/11/27 06:52:00;;;;;;;7.35;0.85;;;12.10;99.90;;;;;;4976867;28;20383;-65
2022/11/27 06:54:26;;;;;;;5.55;1.00;;;12.10;99.90;;;;;;4978651;28;20039;-65
2022/11/27 06:56:52;;;;;;;7.88;0.85;;;12.10;99.90;;;;;;4972237;28;20019;-64
2022/11/27 06:59:18;;;;;;;9.05;0.80;;;12.10;99.90;;;;;;4975595;28;20023;-64
2022/11/27 07:01:44;;;;;;;8.02;1.58;;;12.10;99.90;;;;;;4972843;28;20042;-64
2022/11/27 07:04:12;;;;;;;13.38;1.30;;;12.10;99.90;;;;;;4978786;28;20419;-64
2022/11/27 07:06:38;;;;;;;9.25;1.20;;;12.10;99.90;;;;;;4973080;28;20031;-64
2022/11/27 07:09:05;;;;;;;8.82;1.17;;;12.20;99.90;;;;;;4972211;28;20019;-64
2022/11/27 07:11:32;;;;;;;11.23;1.67;;;12.20;99.90;;;;;;4980751;28;20443;-64
2022/11/27 07:14:01;;;;;;;10.40;2.22;;;12.20;99.90;;;;;;4978291;28;20054;-64
2022/11/27 07:16:29;;;;;;;10.90;1.55;;;12.20;99.90;;;;;;4974830;28;20546;-64
2022/11/27 07:18:59;;;;;;;7.32;1.60;;;12.20;99.90;;;;;;4974097;28;20106;-64
2022/11/27 07:21:25;;;;;;;14.95;2.05;;;12.20;99.90;;;;;;4975591;28;20022;-64
2022/11/27 07:23:51;;;;;;;15.48;1.50;;;12.30;99.90;;;;;;4970615;28;20551;-64
2022/11/27 07:26:20;;;;;;;17.65;1.98;;;12.20;99.90;;;;;;4969673;28;20370;-64
2022/11/27 07:28:46;;;;;;;10.20;1.65;;;12.30;99.90;;;;;;4975269;28;20553;-64
2022/11/27 07:31:17;;;;;;;10.68;1.75;;;12.30;99.90;;;;;;4971851;28;20028;-64
2022/11/27 07:33:44;;;;;;;16.13;1.67;;;12.30;99.90;;;;;;4976174;28;20103;-63
2022/11/27 07:36:15;;;;;;;12.40;2.08;;;12.30;99.90;;;;;;4972651;28;20027;-63
2022/11/27 07:38:41;;;;;;;13.97;2.17;;;12.30;99.90;;;;;;4965707;28;20025;-62
2022/11/27 07:41:07;;;;;;;20.77;2.05;;;12.30;99.90;;;;;;4975707;28;20027;-63
2022/11/27 07:43:34;;;;;;;9.68;1.95;;;12.30;99.90;;;;;;4973494;28;20383;-62
2022/11/27 07:46:07;;;;;;;9.38;1.48;;;12.30;99.90;;;;;;4974656;28;20494;-64
2022/11/27 07:48:33;;;;;;;15.60;2.22;;;12.30;99.90;;;;;;4969732;28;20034;-64
2022/11/27 07:50:59;;;;;;;8.73;1.98;;;12.30;99.90;;;;;;4973649;28;20390;-64
2022/11/27 07:53:25;;;;;;;13.27;2.25;;;12.40;99.90;;;;;;4968752;28;20027;-62
2022/11/27 07:55:51;;;;;;;11.68;1.33;;;12.40;99.90;;;;;;4978098;28;20114;-64
2022/11/27 07:58:16;;;;;;;8.45;1.23;;;12.40;99.90;;;;;;4970239;28;20034;-63
2022/11/27 08:00:42;;;;;;;15.45;1.63;;;12.40;99.90;;;;;;4979566;28;20035;-63
2022/11/27 08:03:09;;;;;;;7.93;1.00;;;12.40;99.90;;;;;;4975692;28;20030;-63
2022/11/27 08:05:36;;;;;;;6.65;1.27;;;12.40;99.90;;;;;;4972990;28;20030;-62
2022/11/27 08:08:03;;;;;;;8.43;1.10;;;12.40;99.90;;;;;;4979415;28;20339;-62
2022/11/27 08:10:30;;;;;;;6.85;1.33;;;12.40;99.90;;;;;;4966824;28;20092;-62
2022/11/27 08:12:57;;;;;;;8.52;0.85;;;12.40;99.90;;;;;;4978536;28;20080;-63
2022/11/27 08:15:23;;;;;;;13.95;1.23;;;12.40;99.90;;;;;;4972118;28;20503;-62
2022/11/27 08:17:49;;;;;;;9.48;1.42;;;12.40;99.90;;;;;;4975346;28;20027;-63
2022/11/27 08:20:15;;;;;;;10.85;1.48;;;12.50;99.90;;;;;;4978568;28;20133;-62
2022/11/27 08:22:41;;;;;;;6.85;1.65;;;12.50;99.90;;;;;;4970440;28;20053;-61
2022/11/27 08:25:07;;;;;;;7.13;1.25;;;12.50;99.90;;;;;;4974279;28;20667;-61
2022/11/27 08:27:33;;;;;;;11.73;1.25;;;12.50;99.90;;;;;;4965890;28;20482;-63
2022/11/27 08:29:59;;;;;;;7.47;1.00;;;12.60;99.90;;;;;;4971510;28;20109;-62
2022/11/27 08:32:25;;;;;;;11.05;3.22;;;12.60;99.90;;;;;;4968498;28;20038;-63
2022/11/27 08:34:50;;;;;;;6.68;1.40;;;12.60;99.90;;;;;;4980734;28;20077;-62
2022/11/27 08:37:16;;;;;;;12.73;2.65;;;12.60;99.90;;;;;;4981343;28;20068;-63
2022/11/27 08:39:42;;;;;;;10.70;1.13;;;12.60;99.90;;;;;;4987658;28;20486;-63
2022/11/27 08:42:08;;;;;;;10.27;1.50;;;12.70;99.90;;;;;;4977415;28;20054;-64
2022/11/27 08:44:34;;;;;;;4.82;0.80;;;12.70;99.90;;;;;;4977948;28;20033;-64
2022/11/27 08:46:59;;;;;;;11.57;1.60;;;12.70;99.90;;;;;;4969037;28;20042;-63
2022/11/27 08:49:25;;;;;;;8.57;1.10;;;12.70;99.90;;;;;;4980955;28;20026;-63
2022/11/27 08:51:51;;;;;;;6.78;1.08;;;12.80;99.90;;;;;;4974431;28;20023;-63
2022/11/27 08:54:17;;;;;;;10.00;1.73;;;12.70;99.90;;;;;;4982704;28;20089;-62
2022/11/27 08:56:42;;;;;;;3.40;1.00;;;12.70;99.90;;;;;;4972572;28;20402;-63
2022/11/27 08:59:08;;;;;;;8.65;1.45;;;12.80;99.90;;;;;;4979817;28;20031;-64
2022/11/27 09:01:34;;;;;;;8.20;1.80;;;12.80;99.90;;;;;;4973506;28;20140;-63
2022/11/27 09:04:00;;;;;;;8.15;1.38;;;12.80;99.90;;;;;;4985139;28;20031;-64
2022/11/27 09:06:28;;;;;;;9.32;1.95;;;12.80;99.90;;;;;;4970809;28;20042;-63
2022/11/27 09:08:59;;;;;;;8.57;2.00;;;12.80;99.90;;;;;;4973665;28;20073;-64
2022/11/27 09:11:26;;;;;;;8.32;1.52;;;12.90;99.90;;;;;;4972312;28;20560;-64
2022/11/27 09:13:52;;;;;;;13.75;1.83;;;12.90;99.90;;;;;;4980213;28;20041;-64
2022/11/27 09:16:20;;;;;;;6.65;1.42;;;12.90;99.90;;;;;;4976996;28;20034;-63
2022/11/27 09:18:49;;;;;;;13.82;1.98;;;13.00;99.90;;;;;;4972602;28;20494;-63
2022/11/27 09:21:16;;;;;;;10.40;3.28;;;13.00;99.90;;;;;;4972707;28;20580;-62
2022/11/27 09:23:42;;;;;;;14.60;1.65;;;13.00;99.90;;;;;;4973338;28;20042;-63
2022/11/27 09:26:11;;;;;;;9.90;1.52;;;13.00;99.90;;;;;;4973067;28;20031;-64
2022/11/27 09:28:37;;;;;;;11.52;1.90;;;13.00;99.90;;;;;;4973587;28;20125;-62
2022/11/27 09:31:06;;;;;;;14.43;1.63;;;13.00;99.90;;;;;;4978870;28;20023;-62
2022/11/27 09:33:34;;;;;;;8.60;1.92;;;13.00;99.90;;;;;;4968809;28;20034;-62
2022/11/27 09:36:13;;;;;;;10.90;1.90;;;13.00;99.90;;;;;;4979211;28;20109;-61
2022/11/27 09:38:40;;;;;;;9.38;0.90;;;12.90;99.90;;;;;;4971989;28;20026;-62
2022/11/27 09:41:37;;;;;;;9.43;1.17;;;12.90;99.90;;;;;;4977580;28;20035;-62
2022/11/27 09:44:30;;;;;;;7.35;1.52;;;13.00;99.90;;;;;;4977001;28;20104;-61
2022/11/27 09:47:00;;;;;;;13.93;1.92;;;13.00;99.90;;;;;;4973523;28;20022;-62
2022/11/27 09:49:44;;;;;;;9.40;1.33;;;13.00;99.90;;;;;;4978240;28;20026;-61
2022/11/27 09:52:37;;;;;;;10.25;1.52;;;13.00;99.90;;;;;;4980042;28;20057;-61
2022/11/27 09:55:30;;;;;;;6.97;1.38;;;13.00;99.90;;;;;;4983510;28;20037;-62
2022/11/27 09:58:06;;;;;;;14.38;2.38;;;13.00;99.90;;;;;;4964900;28;20093;-62
2022/11/27 10:00:32;;;;;;;13.63;1.65;;;13.10;99.90;;;;;;4974335;28;20039;-61
2022/11/27 10:02:59;;;;;;;12.65;1.88;;;13.10;99.90;;;;;;4975921;28;20109;-60
2022/11/27 10:05:34;;;;;;;12.10;1.88;;;13.10;99.90;;;;;;4970594;28;20035;-61
2022/11/27 10:08:28;;;;;;;14.85;2.92;;;13.10;99.90;;;;;;4969167;28;20429;-61
2022/11/27 10:11:23;;;;;;;16.58;1.85;;;13.20;99.90;;;;;;4976667;28;20026;-60
2022/11/27 10:14:13;;;;;;;13.00;3.28;;;13.30;99.90;;;;;;4972331;28;20039;-62
2022/11/27 10:16:53;;;;;;;16.75;2.90;;;13.30;99.90;;;;;;4977010;28;20057;-62
2022/11/27 10:19:30;;;;;;;13.52;2.40;;;13.30;99.90;;;;;;4972049;28;20034;-61
2022/11/27 10:22:03;;;;;;;27.98;3.40;;;13.30;99.90;;;;;;4975363;28;20040;-61
2022/11/27 10:24:37;;;;;;;16.83;3.03;;;13.30;99.90;;;;;;4977923;28;20475;-61
2022/11/27 10:27:19;;;;;;;11.43;1.98;;;13.30;99.90;;;;;;4972695;28;20115;-61
2022/11/27 10:29:52;;;;;;;13.60;2.45;;;13.30;99.90;;;;;;4973712;28;20074;-62
2022/11/27 10:32:25;;;;;;;25.05;2.25;;;13.30;99.90;;;;;;4975054;28;20050;-61
2022/11/27 10:35:00;;;;;;;16.00;2.53;;;13.30;99.90;;;;;;4969037;28;20043;-62
2022/11/27 10:37:43;;;;;;;17.05;2.38;;;13.40;99.90;;;;;;4969713;28;20037;-62
2022/11/27 10:40:10;;;;;;;18.20;3.55;;;13.50;99.90;;;;;;4972663;28;20483;-62
2022/11/27 10:42:53;;;;;;;24.50;3.30;;;13.50;99.90;;;;;;4975573;28;20506;-63
2022/11/27 10:45:45;;;;;;;12.57;3.25;;;13.50;99.90;;;;;;4971035;28;20034;-62
2022/11/27 10:48:12;;;;;;;14.32;2.20;;;13.60;99.90;;;;;;4958199;28;20050;-62
2022/11/27 10:50:38;;;;;;;18.13;3.72;;;13.70;99.90;;;;;;4973329;28;20399;-62
2022/11/27 10:53:08;;;;;;;23.88;2.90;;;13.70;99.90;;;;;;4974010;28;20030;-61
2022/11/27 10:55:43;;;;;;;14.52;3.28;;;13.80;99.90;;;;;;4976267;28;20503;-61
2022/11/27 10:58:52;;;;;;;16.65;4.20;;;13.80;99.90;;;;;;4972756;28;20042;-61
2022/11/27 11:01:20;;;;;;;18.73;2.78;;;13.80;99.90;;;;;;4964924;28;20047;-61
2022/11/27 11:03:46;;;;;;;18.02;3.60;;;13.80;99.90;;;;;;4968546;28;20591;-61
2022/11/27 11:06:19;;;;;;;16.67;3.45;;;13.80;99.90;;;;;;4974477;28;20122;-63
2022/11/27 11:08:45;;;;;;;14.10;2.22;;;13.90;99.90;;;;;;4967933;28;20565;-62
2022/11/27 11:11:11;;;;;;;18.38;2.67;;;14.00;99.90;;;;;;4974489;28;20030;-62
2022/11/27 11:13:40;;;;;;;15.60;2.40;;;14.10;99.90;;;;;;4964141;28;20089;-62
2022/11/27 11:16:21;;;;;;;15.30;2.92;;;14.20;99.90;;;;;;4966818;28;20030;-62
2022/11/27 11:18:50;;;;;;;19.02;2.50;;;14.20;99.90;;;;;;4961572;28;20038;-61
2022/11/27 11:21:26;;;;;;;16.85;3.38;;;14.20;99.90;;;;;;4970417;28;20022;-61
2022/11/27 11:24:02;;;;;;;21.35;3.47;;;14.30;99.90;;;;;;4966215;28;20490;-65
2022/11/27 11:26:35;;;;;;;21.08;2.30;;;14.20;99.90;;;;;;4965464;28;20031;-66
2022/11/27 11:29:06;;;;;;;17.63;3.08;;;14.20;99.90;;;;;;4960561;28;20039;-65
2022/11/27 11:31:38;;;;;;;25.23;3.30;;;14.20;99.90;;;;;;4972480;28;20022;-65
2022/11/27 11:34:21;;;;;;;17.35;3.17;;;14.20;99.90;;;;;;4971421;28;20031;-66
2022/11/27 11:37:00;;;;;;;21.88;2.75;;;14.10;99.90;;;;;;4970575;28;20038;-65
2022/11/27 11:39:30;;;;;;;19.17;2.67;;;14.20;99.90;;;;;;4973355;28;20069;-66
2022/11/27 11:41:56;;;;;;;14.85;2.25;;;14.10;99.90;;;;;;4976262;28;20030;-66
2022/11/27 11:44:38;;;;;;;21.35;4.15;;;14.10;99.90;;;;;;4979300;28;20042;-65
2022/11/27 11:47:04;;;;;;;19.15;2.88;;;14.10;99.90;;;;;;4977966;28;20035;-65
2022/11/27 11:49:32;;;;;;;19.08;3.50;;;14.10;99.90;;;;;;4981790;28;20041;-67
2022/11/27 11:52:20;;;;;;;24.63;5.30;;;14.10;99.90;;;;;;4972993;28;20022;-66
2022/11/27 11:54:58;;;;;;;19.70;3.35;;;14.00;99.90;;;;;;4974478;28;20042;-66
2022/11/27 11:57:54;;;;;;;17.13;3.17;;;14.00;99.90;;;;;;4991212;28;20030;-64
2022/11/27 12:00:22;;;;;;;13.05;3.83;;;14.00;99.90;;;;;;4984452;28;20118;-65
2022/11/27 12:03:13;;;;;;;19.42;3.47;;;14.00;99.90;;;;;;4978657;28;20496;-65
2022/11/27 12:06:16;;;;;;;22.75;3.10;;;13.90;99.90;;;;;;4972592;28;20030;-65
2022/11/27 12:09:29;;;;;;;23.80;2.80;;;13.90;99.90;;;;;;4938331;28;20048;-66
2022/11/27 12:12:39;;;;;;;18.10;3.00;;;13.90;99.90;;;;;;4986438;28;20050;-65
2022/11/27 12:15:21;;;;;;;16.48;2.50;;;13.90;99.90;;;;;;4970009;28;20019;-66
2022/11/27 12:17:57;;;;;;;17.17;3.55;;;13.90;99.90;;;;;;4977459;28;20501;-65
2022/11/27 12:20:47;;;;;;;16.75;2.80;;;14.00;99.90;;;;;;4967805;28;20031;-65
2022/11/27 12:23:48;;;;;;;12.27;3.05;;;13.90;99.90;;;;;;4972396;28;20050;-65
2022/11/27 12:26:21;;;;;;;17.30;2.63;;;13.90;99.90;;;;;;4967544;28;20031;-65
2022/11/27 12:29:05;;;;;;;13.05;2.47;;;14.00;99.90;;;;;;4969973;28;20038;-65
2022/11/27 12:31:45;;;;;;;14.00;3.67;;;14.00;99.90;;;;;;4978080;28;20487;-66
2022/11/27 12:34:45;;;;;;;13.07;2.25;;;14.00;99.90;;;;;;4984948;28;20038;-65
2022/11/27 12:37:33;;;;;;;11.95;2.72;;;14.00;99.90;;;;;;4980533;28;20062;-65
2022/11/27 12:40:36;;;;;;;18.08;3.30;;;14.00;99.90;;;;;;4976223;28;20022;-65
2022/11/27 12:43:24;;;;;;;14.68;3.33;;;14.00;99.90;;;;;;4961694;28;20479;-65
2022/11/27 12:46:09;;;;;;;18.17;2.83;;;14.10;99.90;;;;;;4969403;28;20035;-66
2022/11/27 12:48:35;;;;;;;18.35;3.53;;;14.10;99.90;;;;;;4976013;28;20041;-65
2022/11/27 12:51:28;;;;;;;17.92;2.80;;;14.10;99.90;;;;;;4973971;28;20564;-65
2022/11/27 12:54:17;;;;;;;16.85;3.65;;;14.00;99.90;;;;;;4964692;28;20430;-65
2022/11/27 12:56:53;;;;;;;17.98;3.00;;;14.00;99.90;;;;;;4966656;28;20031;-66
2022/11/27 12:59:30;;;;;;;18.95;3.25;;;13.90;99.90;;;;;;4966783;28;20090;-65
2022/11/27 13:02:32;;;;;;;25.35;8.02;;;13.90;99.90;;;;;;4972330;28;20450;-66